Time;durP1;ratioP1;P1;durP2;ratioP2;P2;SDS_P1;SDS_P2;PMS_P1;PMS_P2;Temp;Humidity;BMP_temperature;BMP_pressure;BME280_temperature;BME280_humidity;BME280_pressure;Samples;Min_cycle;Max_cycle;Signal;HPM_P1;HPM_P2
2021/03/04 00:01:49;;;;;;;33.13;13.93;;;;;;;1.51;57.22;102374.88;5084732;28;20031;-69
2021/03/04 00:04:14;;;;;;;29.10;13.07;;;;;;;1.30;57.80;102371.78;5070690;28;20044;-71
2021/03/04 00:06:40;;;;;;;36.65;15.93;;;;;;;1.00;58.57;102367.69;5069426;28;20043;-69
2021/03/04 00:09:06;;;;;;;33.53;14.52;;;;;;;1.23;58.14;102369.91;5088634;28;20039;-72
2021/03/04 00:11:31;;;;;;;39.85;13.98;;;;;;;1.28;57.99;102368.31;5096921;28;20097;-72
2021/03/04 00:13:56;;;;;;;29.77;13.35;;;;;;;1.43;57.82;102368.69;5089450;28;20124;-72
2021/03/04 00:16:22;;;;;;;33.78;12.85;;;;;;;1.46;57.63;102371.34;5077900;28;20044;-70
2021/03/04 00:18:47;;;;;;;30.92;13.18;;;;;;;1.54;57.29;102371.50;5087538;28;20055;-70
2021/03/04 00:21:13;;;;;;;35.00;13.80;;;;;;;1.85;56.71;102370.44;5069271;28;20517;-70
2021/03/04 00:23:38;;;;;;;33.70;12.98;;;;;;;2.06;56.28;102372.56;5055262;28;20044;-70
2021/03/04 00:26:04;;;;;;;32.15;13.60;;;;;;;1.94;56.42;102364.59;5054495;28;20440;-72
2021/03/04 00:28:29;;;;;;;31.77;14.38;;;;;;;2.00;56.27;102356.09;5085913;28;20483;-72
2021/03/04 00:30:55;;;;;;;34.70;15.30;;;;;;;1.74;56.82;102356.47;5085621;28;20040;-70
2021/03/04 00:33:20;;;;;;;35.33;15.05;;;;;;;2.11;56.01;102354.63;5051516;28;20051;-71
2021/03/04 00:35:46;;;;;;;30.80;13.65;;;;;;;1.61;56.92;102347.59;5052713;28;20086;-70
2021/03/04 00:38:11;;;;;;;32.58;13.60;;;;;;;1.86;56.46;102354.16;5087190;28;20028;-70
2021/03/04 00:40:37;;;;;;;31.95;14.23;;;;;;;2.14;55.75;102354.66;5070164;28;20525;-70
2021/03/04 00:43:04;;;;;;;27.80;11.85;;;;;;;1.91;55.96;102346.50;5053077;28;20031;-70
2021/03/04 00:45:30;;;;;;;29.98;13.85;;;;;;;1.75;56.70;102344.44;5088504;28;20043;-70
2021/03/04 00:47:55;;;;;;;32.90;12.70;;;;;;;1.61;57.04;102346.72;5086891;28;20051;-71
2021/03/04 00:50:21;;;;;;;26.90;11.98;;;;;;;1.44;57.86;102343.78;5083586;28;20035;-71
2021/03/04 00:52:47;;;;;;;29.38;11.45;;;;;;;1.41;57.89;102354.03;5069075;28;20044;-71
2021/03/04 00:55:13;;;;;;;32.55;12.63;;;;;;;1.68;57.39;102351.16;5086737;28;20039;-70
2021/03/04 00:57:38;;;;;;;25.30;12.48;;;;;;;1.79;57.00;102349.69;5071138;28;20290;-70
2021/03/04 01:00:06;;;;;;;30.05;12.70;;;;;;;1.54;57.58;102355.19;5069107;28;20048;-70
2021/03/04 01:02:31;;;;;;;26.45;11.00;;;;;;;1.61;57.35;102346.72;5088070;28;20080;-70
2021/03/04 01:04:57;;;;;;;26.30;9.63;;;;;;;1.65;57.13;102343.38;5056458;28;20020;-70
2021/03/04 01:07:22;;;;;;;21.20;9.70;;;;;;;1.75;57.03;102345.28;5089417;28;20045;-70
2021/03/04 01:09:48;;;;;;;27.13;10.15;;;;;;;1.62;57.32;102343.34;5088360;28;20038;-70
2021/03/04 01:12:13;;;;;;;23.77;8.30;;;;;;;1.51;57.44;102346.53;5089047;28;20047;-70
2021/03/04 01:14:39;;;;;;;19.15;8.18;;;;;;;1.60;56.96;102338.13;5070545;28;20734;-70
2021/03/04 01:17:08;;;;;;;15.30;8.30;;;;;;;1.52;57.21;102330.22;5070431;28;20035;-70
2021/03/04 01:19:34;;;;;;;21.15;8.32;;;;;;;1.62;57.08;102330.44;5087374;28;20133;-70
2021/03/04 01:21:59;;;;;;;17.15;7.57;;;;;;;1.14;57.90;102328.50;5085741;28;20049;-70
2021/03/04 01:24:25;;;;;;;17.85;7.38;;;;;;;1.62;56.73;102327.88;5072228;28;20068;-71
2021/03/04 01:26:50;;;;;;;21.67;7.93;;;;;;;1.48;57.07;102331.03;5069195;28;20031;-70
2021/03/04 01:29:16;;;;;;;12.98;5.38;;;;;;;1.11;57.51;102330.19;5069992;28;20455;-71
2021/03/04 01:31:41;;;;;;;13.93;6.78;;;;;;;1.10;57.76;102324.97;5068881;28;20043;-70
2021/03/04 01:34:07;;;;;;;16.88;6.72;;;;;;;1.04;57.45;102318.00;5082734;28;20032;-70
2021/03/04 01:36:32;;;;;;;13.85;6.32;;;;;;;1.28;56.11;102316.78;5070202;28;20127;-70
2021/03/04 01:38:58;;;;;;;16.20;6.28;;;;;;;1.14;56.96;102315.63;5067655;28;20656;-70
2021/03/04 01:41:23;;;;;;;13.07;6.55;;;;;;;1.28;56.31;102316.78;5068909;28;20124;-70
2021/03/04 01:43:49;;;;;;;11.27;5.15;;;;;;;1.18;56.86;102308.00;5069772;28;20032;-70
2021/03/04 01:46:15;;;;;;;12.00;5.43;;;;;;;1.39;56.48;102310.16;5086864;28;20568;-70
2021/03/04 01:48:40;;;;;;;14.68;6.40;;;;;;;1.45;56.21;102310.34;5086431;28;20078;-70
2021/03/04 01:51:06;;;;;;;16.85;6.47;;;;;;;1.10;56.93;102304.38;5087130;28;20062;-70
2021/03/04 01:53:32;;;;;;;16.27;5.57;;;;;;;1.24;56.83;102305.56;5055162;28;20436;-69
2021/03/04 01:55:59;;;;;;;8.95;4.07;;;;;;;1.07;57.06;102294.03;5088969;28;20031;-70
2021/03/04 01:58:24;;;;;;;12.48;5.40;;;;;;;1.44;55.98;102292.25;5069535;28;20044;-70
2021/03/04 02:04:31;;;;;;;12.23;5.97;;;;;;;1.73;55.41;102282.56;5082493;28;20153;-70
2021/03/04 02:07:19;;;;;;;11.02;4.60;;;;;;;1.40;55.91;102275.88;5071544;28;20027;-70
2021/03/04 02:09:52;;;;;;;12.35;5.55;;;;;;;1.86;55.28;102281.94;5087829;28;20032;-69
2021/03/04 02:12:32;;;;;;;8.65;4.40;;;;;;;1.65;55.17;102272.09;5069564;28;20070;-71
2021/03/04 02:15:03;;;;;;;9.38;4.75;;;;;;;1.62;55.39;102271.16;5081322;28;20028;-71
2021/03/04 02:17:32;;;;;;;8.65;4.22;;;;;;;1.77;54.76;102270.56;5069210;28;20035;-71
2021/03/04 02:20:00;;;;;;;9.75;3.90;;;;;;;1.85;54.54;102259.56;5083982;28;20055;-70
2021/03/04 02:22:46;;;;;;;11.43;5.28;;;;;;;1.52;55.17;102263.22;5083914;28;20593;-70
2021/03/04 02:25:32;;;;;;;12.63;4.72;;;;;;;1.41;55.66;102259.56;5083951;28;20039;-69
2021/03/04 02:27:59;;;;;;;10.43;4.13;;;;;;;1.92;55.14;102258.84;5085690;28;20185;-71
2021/03/04 02:30:34;;;;;;;12.18;5.40;;;;;;;1.94;54.61;102254.59;5077702;28;20035;-70
2021/03/04 02:33:22;;;;;;;8.18;4.22;;;;;;;2.04;54.54;102259.91;5084849;28;20486;-69
2021/03/04 02:35:49;;;;;;;9.70;4.75;;;;;;;2.09;54.38;102256.56;5086346;28;20057;-70
2021/03/04 02:38:18;;;;;;;11.93;5.45;;;;;;;2.16;54.06;102259.28;5088311;28;20031;-72
2021/03/04 02:40:46;;;;;;;10.85;4.15;;;;;;;1.85;54.80;102258.72;5070485;28;20039;-71
2021/03/04 02:43:14;;;;;;;10.75;4.90;;;;;;;1.85;55.22;102248.41;5053610;28;20034;-71
2021/03/04 02:45:42;;;;;;;9.73;5.25;;;;;;;1.97;54.73;102245.16;5083464;28;20881;-71
2021/03/04 02:48:12;;;;;;;10.93;4.70;;;;;;;2.06;54.81;102233.28;5068116;28;20020;-71
2021/03/04 02:50:39;;;;;;;9.48;4.30;;;;;;;2.18;54.71;102232.66;5087389;28;20036;-70
2021/03/04 02:53:06;;;;;;;11.50;3.67;;;;;;;2.06;54.22;102228.13;5087522;28;20040;-70
2021/03/04 02:55:33;;;;;;;7.72;4.13;;;;;;;2.10;54.37;102218.75;5079813;28;20033;-71
2021/03/04 02:58:00;;;;;;;7.82;3.83;;;;;;;2.16;54.54;102216.28;5087106;28;20039;-70
2021/03/04 03:00:29;;;;;;;8.45;4.07;;;;;;;2.09;54.52;102217.03;5081596;28;20110;-70
2021/03/04 03:02:57;;;;;;;12.15;3.88;;;;;;;2.08;54.71;102208.38;5069687;28;20074;-71
2021/03/04 03:05:25;;;;;;;10.13;4.55;;;;;;;2.24;54.41;102214.69;5087231;28;20573;-70
2021/03/04 03:07:52;;;;;;;8.10;3.28;;;;;;;2.38;53.82;102202.00;5070036;28;20040;-71
2021/03/04 03:10:18;;;;;;;7.93;3.38;;;;;;;2.39;53.71;102198.56;5049726;28;20093;-70
2021/03/04 03:12:47;;;;;;;10.85;3.92;;;;;;;2.46;53.52;102202.13;5068983;28;20487;-71
2021/03/04 03:15:18;;;;;;;5.35;3.13;;;;;;;2.39;53.72;102195.13;5083057;28;20483;-71
2021/03/04 03:17:45;;;;;;;6.93;3.55;;;;;;;2.25;53.04;102187.19;5085689;28;20447;-71
2021/03/04 03:20:14;;;;;;;7.40;3.65;;;;;;;1.94;53.99;102184.97;5083074;28;20066;-72
2021/03/04 03:22:40;;;;;;;13.07;3.85;;;;;;;2.38;53.54;102190.81;5086037;28;20680;-71
2021/03/04 03:25:13;;;;;;;7.22;3.35;;;;;;;2.13;53.62;102186.16;5071693;28;20039;-71
2021/03/04 03:27:40;;;;;;;6.65;3.25;;;;;;;2.30;53.62;102178.66;5072333;28;20433;-71
2021/03/04 03:30:09;;;;;;;5.68;2.67;;;;;;;2.45;53.36;102175.44;5071304;28;20032;-70
2021/03/04 03:32:37;;;;;;;7.40;3.67;;;;;;;2.40;53.27;102178.78;5067456;28;20066;-71
2021/03/04 03:35:04;;;;;;;7.60;3.83;;;;;;;2.47;52.99;102172.91;5085170;28;20502;-70
2021/03/04 03:37:30;;;;;;;7.45;2.75;;;;;;;2.25;53.80;102162.25;5072718;28;20546;-70
2021/03/04 03:39:57;;;;;;;10.35;3.72;;;;;;;2.41;53.40;102162.47;5071204;28;20044;-71
2021/03/04 03:42:24;;;;;;;5.32;3.28;;;;;;;2.47;53.49;102163.44;5086091;28;20040;-70
2021/03/04 03:44:50;;;;;;;9.98;3.47;;;;;;;2.48;53.23;102164.28;5070581;28;20032;-70
2021/03/04 03:47:16;;;;;;;10.07;3.35;;;;;;;2.41;53.20;102152.16;5068866;28;20606;-71
2021/03/04 03:49:43;;;;;;;6.57;3.80;;;;;;;2.55;53.11;102150.63;5075047;28;20475;-70
2021/03/04 03:52:09;;;;;;;5.75;3.88;;;;;;;2.53;53.01;102148.03;5068670;28;20032;-71
2021/03/04 03:54:36;;;;;;;7.60;3.35;;;;;;;2.41;53.27;102152.16;5069849;28;20105;-70
2021/03/04 03:57:04;;;;;;;6.47;2.80;;;;;;;2.46;53.05;102147.91;5088173;28;20089;-70
2021/03/04 03:59:32;;;;;;;6.57;3.30;;;;;;;2.27;53.55;102149.38;5069500;28;20147;-70
2021/03/04 04:01:58;;;;;;;9.35;4.05;;;;;;;2.38;53.46;102142.66;5086544;28;20185;-71
2021/03/04 04:04:24;;;;;;;8.02;3.55;;;;;;;2.24;53.33;102139.00;5069624;28;20032;-72
2021/03/04 04:06:52;;;;;;;10.65;3.58;;;;;;;2.27;53.84;102139.06;5090911;28;20490;-70
2021/03/04 04:09:18;;;;;;;8.75;4.28;;;;;;;2.35;53.69;102137.44;5072193;28;20023;-70
2021/03/04 04:11:43;;;;;;;10.55;3.85;;;;;;;2.18;53.78;102129.47;5090891;28;20490;-71
2021/03/04 04:14:09;;;;;;;9.02;3.67;;;;;;;2.26;53.90;102127.84;5087410;28;20640;-70
2021/03/04 04:16:35;;;;;;;7.32;3.75;;;;;;;2.34;53.85;102122.81;5091553;28;20032;-70
2021/03/04 04:19:00;;;;;;;10.25;4.78;;;;;;;2.08;54.06;102122.41;5086540;28;20044;-71
2021/03/04 04:21:26;;;;;;;10.55;4.22;;;;;;;2.14;53.83;102127.69;5074780;28;20380;-70
2021/03/04 04:23:52;;;;;;;11.88;4.13;;;;;;;1.96;54.69;102127.41;5071315;28;20121;-70
2021/03/04 04:26:18;;;;;;;7.60;3.85;;;;;;;2.16;54.00;102127.72;5089644;28;20035;-70
2021/03/04 04:28:44;;;;;;;8.07;3.92;;;;;;;2.13;54.33;102131.97;5085906;28;20491;-70
2021/03/04 04:31:10;;;;;;;6.50;3.70;;;;;;;2.17;54.27;102130.28;5088462;28;20058;-70
2021/03/04 04:33:36;;;;;;;8.52;4.05;;;;;;;2.25;54.15;102128.72;5069752;28;20040;-71
2021/03/04 04:36:03;;;;;;;6.78;3.38;;;;;;;2.04;54.46;102134.41;5105204;27;20161;-70
2021/03/04 04:38:28;;;;;;;11.35;4.45;;;;;;;2.27;54.30;102132.19;5071580;28;20744;-70
2021/03/04 04:40:54;;;;;;;6.85;3.50;;;;;;;2.06;54.36;102129.25;5084152;28;20163;-70
2021/03/04 04:43:19;;;;;;;8.95;4.53;;;;;;;1.98;54.71;102128.31;5073114;28;20062;-70
2021/03/04 04:45:45;;;;;;;6.43;3.15;;;;;;;2.12;54.83;102124.22;5073110;28;20084;-70
2021/03/04 04:48:11;;;;;;;9.00;3.55;;;;;;;2.24;54.46;102129.56;5073903;28;20024;-70
2021/03/04 04:50:36;;;;;;;7.97;3.78;;;;;;;2.23;54.22;102122.66;5089046;28;20028;-71
2021/03/04 04:53:02;;;;;;;6.88;3.67;;;;;;;2.09;54.12;102122.44;5071996;28;20118;-71
2021/03/04 04:55:27;;;;;;;8.13;3.53;;;;;;;2.25;53.80;102120.97;5071597;28;20449;-70
2021/03/04 04:57:53;;;;;;;7.57;3.97;;;;;;;2.37;53.96;102120.28;5072949;28;20028;-70
2021/03/04 05:00:20;;;;;;;7.13;3.05;;;;;;;2.42;54.24;102107.44;5087139;28;20036;-70
2021/03/04 05:02:45;;;;;;;6.57;3.92;;;;;;;2.23;54.31;102107.19;5090365;28;20046;-70
2021/03/04 05:05:11;;;;;;;10.70;3.67;;;;;;;2.09;54.57;102103.53;5072502;28;20032;-70
2021/03/04 05:07:37;;;;;;;10.38;2.95;;;;;;;2.14;54.48;102097.59;5073234;28;20099;-70
2021/03/04 05:10:05;;;;;;;7.53;3.10;;;;;;;2.26;54.17;102098.59;5072945;28;20441;-71
2021/03/04 05:12:30;;;;;;;7.78;3.47;;;;;;;2.24;54.34;102102.88;5072379;28;20526;-70
2021/03/04 05:14:56;;;;;;;6.85;3.60;;;;;;;2.14;54.21;102092.44;5091311;28;20024;-70
2021/03/04 05:17:21;;;;;;;10.48;3.40;;;;;;;2.12;54.42;102093.25;5092937;28;20029;-70
2021/03/04 05:19:47;;;;;;;6.50;3.10;;;;;;;2.21;54.32;102095.97;5094491;28;20028;-70
2021/03/04 05:22:13;;;;;;;7.43;3.83;;;;;;;2.01;54.72;102103.41;5093170;28;20051;-71
2021/03/04 05:24:39;;;;;;;9.10;4.15;;;;;;;1.88;55.16;102098.91;5080414;28;20387;-70
2021/03/04 05:27:05;;;;;;;9.25;3.50;;;;;;;2.05;54.82;102096.59;5105633;28;20032;-71
2021/03/04 05:29:30;;;;;;;7.18;3.05;;;;;;;1.85;55.26;102086.84;5095824;28;20062;-71
2021/03/04 05:31:56;;;;;;;8.30;3.90;;;;;;;2.06;54.94;102085.41;5078327;28;20028;-71
2021/03/04 05:34:21;;;;;;;9.63;4.13;;;;;;;2.08;54.84;102076.84;5073724;28;20028;-71
2021/03/04 05:36:47;;;;;;;7.68;3.00;;;;;;;2.10;54.70;102074.31;5089018;28;20046;-71
2021/03/04 05:39:13;;;;;;;9.52;3.60;;;;;;;2.04;54.56;102074.22;5071420;28;20396;-70
2021/03/04 05:41:39;;;;;;;6.45;3.22;;;;;;;2.06;54.52;102073.38;5071072;28;20104;-70
2021/03/04 05:44:05;;;;;;;6.78;3.05;;;;;;;2.33;54.08;102072.94;5071291;28;20032;-71
2021/03/04 05:46:33;;;;;;;6.88;3.67;;;;;;;2.19;54.22;102068.41;5094403;28;20160;-70
2021/03/04 05:49:00;;;;;;;4.55;2.85;;;;;;;2.29;54.21;102071.16;5071352;28;20087;-70
2021/03/04 05:51:27;;;;;;;5.53;2.40;;;;;;;2.19;54.17;102063.25;5088470;28;20048;-70
2021/03/04 05:53:58;;;;;;;6.90;3.45;;;;;;;2.32;53.68;102060.88;5055311;28;20059;-71
2021/03/04 05:56:24;;;;;;;5.50;2.40;;;;;;;2.17;54.00;102068.38;5071557;28;20101;-70
2021/03/04 05:58:51;;;;;;;8.45;3.53;;;;;;;1.96;54.30;102057.78;5089535;28;21127;-70
2021/03/04 06:01:18;;;;;;;7.88;3.10;;;;;;;2.21;53.76;102057.28;5070993;28;20624;-71
2021/03/04 06:03:45;;;;;;;7.70;3.85;;;;;;;2.23;54.00;102057.31;5075033;28;20031;-71
2021/03/04 06:06:11;;;;;;;8.98;3.88;;;;;;;2.34;53.82;102056.59;5090200;28;20024;-71
2021/03/04 06:08:37;;;;;;;5.22;3.17;;;;;;;2.44;53.50;102059.28;5088325;28;20058;-71
2021/03/04 06:11:04;;;;;;;8.90;3.58;;;;;;;1.95;54.62;102054.31;5075104;28;20580;-71
2021/03/04 06:13:31;;;;;;;7.47;3.75;;;;;;;2.18;53.94;102049.50;5087326;28;20097;-71
2021/03/04 06:16:00;;;;;;;7.32;3.95;;;;;;;2.07;54.20;102051.06;5071762;28;20028;-71
2021/03/04 06:18:40;;;;;;;9.25;4.20;;;;;;;2.02;54.59;102045.84;5088248;28;20039;-71
2021/03/04 06:21:22;;;;;;;6.18;2.83;;;;;;;2.28;53.58;102048.75;5069566;28;20051;-71
2021/03/04 06:23:47;;;;;;;7.28;3.53;;;;;;;2.35;53.50;102045.44;5088263;28;20035;-71
2021/03/04 06:26:52;;;;;;;6.60;3.00;;;;;;;1.80;55.27;102047.22;5069748;28;20055;-71
2021/03/04 06:29:20;;;;;;;7.20;2.80;;;;;;;1.84;55.13;102032.66;5076206;28;20563;-70
2021/03/04 06:31:57;;;;;;;6.68;2.95;;;;;;;2.17;54.53;102040.00;5087309;28;20031;-70
2021/03/04 06:34:23;;;;;;;6.72;3.33;;;;;;;2.37;53.98;102042.84;5069742;28;20450;-71
2021/03/04 06:37:15;;;;;;;5.88;2.78;;;;;;;2.59;53.53;102036.25;5085804;28;20441;-71
2021/03/04 06:39:45;;;;;;;8.63;3.60;;;;;;;2.32;53.74;102040.22;5048232;28;20048;-71
2021/03/04 06:42:13;;;;;;;8.50;3.20;;;;;;;2.29;54.01;102035.03;5069286;28;20055;-71
2021/03/04 06:44:48;;;;;;;7.72;3.22;;;;;;;2.32;53.91;102040.22;5086024;28;20032;-71
2021/03/04 06:47:24;;;;;;;7.78;2.95;;;;;;;2.65;53.32;102043.22;5053434;28;20028;-71
2021/03/04 06:49:51;;;;;;;6.15;2.95;;;;;;;2.63;52.77;102037.16;5069604;28;20124;-71
2021/03/04 06:52:28;;;;;;;8.23;3.50;;;;;;;2.55;53.16;102039.63;5087924;28;20103;-71
2021/03/04 06:54:54;;;;;;;6.32;2.78;;;;;;;2.52;52.95;102031.88;5047385;28;20024;-70
2021/03/04 06:57:21;;;;;;;7.25;3.33;;;;;;;2.62;52.94;102032.84;5088084;28;20115;-70
2021/03/04 06:59:48;;;;;;;7.32;2.53;;;;;;;2.49;53.54;102032.72;5084654;28;20083;-70
2021/03/04 07:02:33;;;;;;;7.40;3.20;;;;;;;2.55;53.56;102034.47;5086131;28;20032;-70
2021/03/04 07:05:03;;;;;;;8.30;3.42;;;;;;;2.28;53.98;102038.44;5090256;28;20035;-71
2021/03/04 07:07:29;;;;;;;8.02;3.08;;;;;;;2.62;53.29;102031.13;5069559;28;20028;-70
2021/03/04 07:09:57;;;;;;;7.80;3.58;;;;;;;2.52;53.38;102040.47;5067975;28;20028;-70
2021/03/04 07:12:24;;;;;;;7.00;3.08;;;;;;;2.06;54.42;102036.41;5052108;28;20082;-70
2021/03/04 07:14:51;;;;;;;10.27;4.63;;;;;;;2.27;54.21;102041.03;5068659;28;20074;-70
2021/03/04 07:17:20;;;;;;;6.40;3.75;;;;;;;2.35;54.06;102042.88;5067138;28;20028;-69
2021/03/04 07:20:05;;;;;;;9.68;4.07;;;;;;;2.37;54.22;102039.41;5093351;28;20039;-69
2021/03/04 07:22:32;;;;;;;11.60;4.72;;;;;;;2.10;55.24;102043.34;5080838;28;20039;-70
2021/03/04 07:24:58;;;;;;;10.73;4.97;;;;;;;2.59;54.18;102043.13;5083222;28;20042;-69
2021/03/04 07:27:24;;;;;;;8.13;3.88;;;;;;;2.50;53.98;102028.41;5093855;28;21026;-69
2021/03/04 07:29:51;;;;;;;12.07;4.78;;;;;;;2.44;54.22;102033.47;5079038;28;20062;-69
2021/03/04 07:32:18;;;;;;;9.63;5.22;;;;;;;2.41;54.49;102033.47;5066632;28;20547;-71
2021/03/04 07:34:45;;;;;;;9.23;4.28;;;;;;;1.94;55.60;102035.41;5083857;28;20038;-69
2021/03/04 07:37:17;;;;;;;8.73;3.88;;;;;;;2.31;54.72;102035.94;5082542;28;20028;-70
2021/03/04 07:39:42;;;;;;;;;;;;;;;2.12;55.47;102031.34;5084439;28;20066;-69
2021/03/04 07:42:19;;;;;;;8.60;3.70;;;;;;;2.42;54.52;102033.50;5086286;28;20394;-70
2021/03/04 07:44:47;;;;;;;9.57;3.38;;;;;;;2.57;54.23;102030.19;5096689;28;20050;-70
2021/03/04 07:47:13;;;;;;;11.80;3.88;;;;;;;2.80;53.83;102033.06;5100108;28;20028;-72
2021/03/04 07:49:42;;;;;;;7.47;3.30;;;;;;;2.47;54.67;102028.38;5069663;28;20036;-71
2021/03/04 07:52:11;;;;;;;11.68;3.78;;;;;;;2.86;53.81;102019.34;5070638;28;20539;-71
2021/03/04 07:54:38;;;;;;;6.70;3.50;;;;;;;2.79;53.76;102033.03;5087937;28;20107;-72
2021/03/04 07:57:15;;;;;;;5.22;2.88;;;;;;;2.79;53.01;102030.47;5087618;28;20024;-72
2021/03/04 07:59:58;;;;;;;4.57;1.90;;;;;;;2.59;54.61;102027.66;5091371;28;20055;-70
2021/03/04 08:02:28;;;;;;;9.30;3.17;;;;;;;2.53;54.90;102025.84;5087938;28;20047;-70
2021/03/04 08:05:16;;;;;;;5.65;2.00;;;;;;;2.70;54.23;102031.22;5062784;28;20066;-73
2021/03/04 08:07:46;;;;;;;4.47;2.65;;;;;;;3.05;53.51;102029.03;5069314;28;20039;-71
2021/03/04 08:10:11;;;;;;;7.80;2.22;;;;;;;2.88;53.45;102021.09;5086754;28;20063;-71
2021/03/04 08:12:53;;;;;;;7.47;1.77;;;;;;;2.82;53.40;102017.56;5070210;28;20060;-70
2021/03/04 08:15:30;;;;;;;2.57;1.20;;;;;;;2.88;53.29;102017.66;5053049;28;20045;-71
2021/03/04 08:17:56;;;;;;;4.28;1.92;;;;;;;3.21;53.19;102013.66;5070844;28;20047;-72
2021/03/04 08:20:23;;;;;;;4.47;1.63;;;;;;;3.25;52.52;102003.38;5069958;28;20612;-71
2021/03/04 08:22:54;;;;;;;4.32;2.25;;;;;;;3.54;51.92;102003.63;5088191;28;20077;-71
2021/03/04 08:25:25;;;;;;;4.25;2.00;;;;;;;3.64;51.34;102006.28;5084430;28;20681;-74
2021/03/04 08:27:52;;;;;;;5.05;1.63;;;;;;;3.82;50.90;102003.81;5071337;28;20035;-71
2021/03/04 08:30:38;;;;;;;3.40;1.98;;;;;;;3.87;50.65;102007.28;5070206;28;20662;-69
2021/03/04 08:33:06;;;;;;;7.25;2.63;;;;;;;3.78;51.33;102012.41;5070786;28;20055;-72
2021/03/04 08:35:37;;;;;;;9.15;4.18;;;;;;;3.80;51.43;102015.88;5088249;28;20731;-72
2021/03/04 08:38:06;;;;;;;4.05;1.20;;;;;;;3.72;51.12;102012.38;5086047;28;20020;-73
2021/03/04 08:40:58;;;;;;;6.57;1.25;;;;;;;3.76;51.52;102014.09;5085254;28;20530;-71
2021/03/04 08:43:26;;;;;;;2.38;1.40;;;;;;;3.44;52.20;102008.72;5047970;28;20498;-70
2021/03/04 08:45:53;;;;;;;2.60;1.15;;;;;;;3.76;51.64;102019.28;5069150;28;20128;-70
2021/03/04 08:48:19;;;;;;;2.42;0.90;;;;;;;3.23;52.59;102001.63;5069273;28;20043;-73
2021/03/04 08:50:50;;;;;;;4.60;1.63;;;;;;;3.74;51.24;102002.91;5097985;28;20024;-72
2021/03/04 08:53:27;;;;;;;3.85;1.00;;;;;;;4.15;50.98;102004.88;5087259;28;20041;-72
2021/03/04 08:55:56;;;;;;;5.63;1.45;;;;;;;4.08;50.24;102010.88;5070600;28;20123;-72
2021/03/04 08:58:24;;;;;;;4.45;1.63;;;;;;;4.27;50.87;102002.31;5069360;28;20028;-70
2021/03/04 09:00:54;;;;;;;3.47;1.08;;;;;;;3.93;51.19;101998.72;5038702;22;20034;-70
2021/03/04 09:03:24;;;;;;;3.03;0.93;;;;;;;4.06;50.86;102003.09;4986186;28;20034;-70
2021/03/04 09:05:50;;;;;;;2.92;0.90;;;;;;;4.12;50.87;102008.31;4987343;28;20049;-70
2021/03/04 09:08:17;;;;;;;9.15;1.00;;;;;;;4.29;50.90;102004.94;4990391;28;20486;-70
2021/03/04 09:10:50;;;;;;;1.80;0.50;;;;;;;4.56;49.63;102001.56;4996324;28;20120;-71
2021/03/04 09:13:25;;;;;;;2.45;1.20;;;;;;;4.41;50.57;101995.50;4988859;28;20037;-71
2021/03/04 09:15:58;;;;;;;3.25;1.08;;;;;;;4.77;49.95;101996.47;4989029;28;20030;-71
2021/03/04 09:18:25;;;;;;;7.88;1.13;;;;;;;4.35;50.36;102004.97;4988786;28;20082;-71
2021/03/04 09:20:53;;;;;;;5.22;1.38;;;;;;;4.34;50.34;102001.50;4989373;28;20115;-71
2021/03/04 09:23:19;;;;;;;4.63;0.93;;;;;;;4.39;50.88;102002.38;4971091;28;20571;-71
2021/03/04 09:25:46;;;;;;;5.13;1.08;;;;;;;4.27;50.83;101997.13;4989518;28;20046;-71
2021/03/04 09:28:14;;;;;;;5.43;1.02;;;;;;;4.60;50.58;101995.53;4988527;28;20536;-71
2021/03/04 09:30:39;;;;;;;3.42;1.30;;;;;;;4.57;50.67;101990.38;4993084;28;20618;-71
2021/03/04 09:33:19;;;;;;;7.50;1.23;;;;;;;4.19;50.20;101985.91;4982291;28;20034;-71
2021/03/04 09:35:58;;;;;;;4.30;0.50;;;;;;;4.36;50.31;101980.78;4989176;28;20053;-71
2021/03/04 09:38:25;;;;;;;10.10;1.08;;;;;;;4.18;49.58;101979.00;4986939;28;20057;-71
2021/03/04 09:40:52;;;;;;;4.55;0.98;;;;;;;4.51;49.53;101983.44;4995990;28;20129;-70
2021/03/04 09:43:19;;;;;;;7.20;1.00;;;;;;;4.25;49.32;101978.16;4987178;28;20039;-70
2021/03/04 09:45:51;;;;;;;10.57;1.80;;;;;;;4.14;48.69;101985.00;4989056;28;20035;-71
2021/03/04 09:48:33;;;;;;;12.50;3.03;;;;;;;4.21;48.02;101986.78;4988705;28;20042;-70
2021/03/04 09:50:58;;;;;;;9.10;1.10;;;;;;;4.60;47.27;101980.00;4990814;28;20042;-70
2021/03/04 09:53:24;;;;;;;4.85;0.57;;;;;;;4.88;46.89;101982.69;4995127;28;20038;-70
2021/03/04 09:55:49;;;;;;;4.90;0.50;;;;;;;4.73;46.50;101979.19;4988242;28;20739;-72
2021/03/04 09:58:24;;;;;;;15.50;1.45;;;;;;;4.50;47.25;101988.59;4986906;28;20042;-71
2021/03/04 10:01:00;;;;;;;8.23;0.63;;;;;;;4.64;46.06;101992.09;5002417;28;20053;-71
2021/03/04 10:03:37;;;;;;;8.45;1.05;;;;;;;4.97;45.90;101978.41;4972222;28;20567;-71
2021/03/04 10:06:03;;;;;;;13.27;1.15;;;;;;;4.56;46.23;101984.31;5002811;28;20189;-70
2021/03/04 10:08:39;;;;;;;13.40;0.90;;;;;;;4.67;45.79;101980.88;5004725;28;20725;-71
2021/03/04 10:11:05;;;;;;;10.68;1.40;;;;;;;4.57;46.62;101985.19;4995469;28;20560;-70
2021/03/04 10:13:31;;;;;;;3.22;0.77;;;;;;;4.99;46.49;101979.25;5005074;28;20040;-70
2021/03/04 10:16:09;;;;;;;20.23;0.70;;;;;;;4.84;46.94;101982.66;4990993;28;20029;-71
2021/03/04 10:18:34;;;;;;;26.02;1.30;;;;;;;5.35;45.54;101980.13;4988253;28;20137;-71
2021/03/04 10:21:01;;;;;;;9.05;1.60;;;;;;;5.10;45.67;101974.09;5008653;28;20066;-71
2021/03/04 10:23:27;;;;;;;12.15;1.13;;;;;;;5.16;45.41;101986.16;4988212;28;20040;-71
2021/03/04 10:25:53;;;;;;;8.70;0.98;;;;;;;5.23;44.76;101995.69;5007540;28;20041;-70
2021/03/04 10:28:18;;;;;;;10.10;1.55;;;;;;;5.28;45.06;102003.44;5004713;28;20018;-71
2021/03/04 10:30:44;;;;;;;6.95;0.80;;;;;;;5.16;45.14;102007.75;5006263;28;20037;-70
2021/03/04 10:33:11;;;;;;;23.95;3.30;;;;;;;5.03;45.32;102011.19;5006020;28;20049;-71
2021/03/04 10:35:36;;;;;;;10.65;1.50;;;;;;;5.32;44.25;102008.63;4991733;28;20026;-70
2021/03/04 10:38:03;;;;;;;9.82;0.80;;;;;;;4.92;43.95;102003.44;4989431;28;20555;-71
2021/03/04 10:40:29;;;;;;;11.00;1.15;;;;;;;4.66;43.86;102016.28;4993410;28;20038;-71
2021/03/04 10:42:54;;;;;;;17.00;1.02;;;;;;;4.70;43.90;102017.16;5008022;28;20046;-71
2021/03/04 10:45:20;;;;;;;11.80;1.55;;;;;;;4.62;44.01;102019.72;4978379;28;20034;-70
2021/03/04 10:47:46;;;;;;;11.60;2.08;;;;;;;4.51;44.72;102017.09;4989228;28;20026;-70
2021/03/04 10:50:18;;;;;;;16.92;1.52;;;;;;;4.67;44.91;102018.00;4995437;28;20037;-70
2021/03/04 10:52:44;;;;;;;15.93;1.73;;;;;;;4.41;45.52;102015.34;5005233;28;20117;-70
2021/03/04 10:55:10;;;;;;;11.73;1.92;;;;;;;4.58;44.56;102010.22;5005655;28;20123;-70
2021/03/04 10:57:36;;;;;;;11.50;1.13;;;;;;;4.08;44.94;102008.28;4994403;28;20129;-71
2021/03/04 11:00:10;;;;;;;13.88;2.33;;;;;;;4.77;44.43;102004.22;5002209;28;20041;-72
2021/03/04 11:02:37;;;;;;;15.57;1.80;;;;;;;4.59;44.97;102005.03;4983443;28;20133;-71
2021/03/04 11:05:03;;;;;;;17.23;3.47;;;;;;;4.95;44.19;101997.41;4992577;28;20141;-70
2021/03/04 11:07:29;;;;;;;19.98;1.77;;;;;;;5.11;43.14;101998.28;5005438;28;20026;-72
2021/03/04 11:09:55;;;;;;;16.80;2.63;;;;;;;5.00;43.10;101996.53;5005471;28;20581;-71
2021/03/04 11:31:19;;;;;;;19.77;2.38;;;;;;;4.17;46.29;101997.97;5121238;27;20402;-70
2021/03/04 11:33:45;;;;;;;31.85;2.35;;;;;;;3.80;46.93;101992.59;5078424;28;20048;-70
2021/03/04 11:36:11;;;;;;;20.33;2.25;;;;;;;3.96;46.34;101988.38;5073472;28;20032;-70
2021/03/04 11:38:36;;;;;;;11.30;1.23;;;;;;;4.28;45.68;101980.78;5054946;28;20056;-70
2021/03/04 11:41:02;;;;;;;21.27;2.67;;;;;;;3.93;45.99;101984.03;5058775;28;20056;-71
2021/03/04 11:43:27;;;;;;;17.27;1.33;;;;;;;4.43;44.97;101974.78;5057134;28;20090;-70
2021/03/04 11:45:53;;;;;;;14.38;1.17;;;;;;;4.35;44.54;101973.91;5060667;28;20043;-70
2021/03/04 11:48:19;;;;;;;13.13;1.70;;;;;;;4.56;43.91;101976.53;5058843;28;20115;-71
2021/03/04 11:50:44;;;;;;;18.50;2.08;;;;;;;4.79;43.75;101971.44;5053947;28;20121;-70
2021/03/04 11:53:10;;;;;;;15.63;1.60;;;;;;;5.76;41.37;101967.97;5056301;28;20406;-71
2021/03/04 11:55:35;;;;;;;9.43;1.35;;;;;;;5.82;41.44;101962.78;5054606;28;20039;-70
2021/03/04 11:58:02;;;;;;;18.42;1.90;;;;;;;5.81;40.71;101961.88;5038672;28;20028;-70